Terminal Aerodrome Forecast
Issued by NWS Charleston, WV

Current Version | Previous Version | Graphics & Text | Print | Product List | Glossary On
Versions: 1 2 3 4 5 6 7 8 9 10 11 12 13 14 15 16 17 18 19 20 21 22 23 24 25 26
255
FTUS41 KRLX 252341
TAFEKN
TAF
KEKN 252341Z 2600/2624 21005KT P6SM SCT060
     FM260800 21006KT P6SM BKN050
     FM261500 26008KT 5SM -SHRA BKN035
     FM262200 26010G15KT 4SM -SHRA VCTS BKN030CB=

USA.gov is the U.S. government's official web portal to all federal, state and local government web resources and services.